Time;durP1;ratioP1;P1;durP2;ratioP2;P2;SDS_P1;SDS_P2;PMS_P1;PMS_P2;Temp;Humidity;BMP_temperature;BMP_pressure;BME280_temperature;BME280_humidity;BME280_pressure;Samples;Min_cycle;Max_cycle;Signal;HPM_P1;HPM_P2
2022/11/17 03:31:00;;;;;;;44.33;25.62;;;;;;;-1.58;100.00;98668.82;1738653;79;22967;-77
2022/11/17 03:33:27;;;;;;;14.30;10.58;;;;;;;-1.47;100.00;98673.95;1711162;81;21022;-77
2022/11/17 03:36:01;;;;;;;12.33;9.48;;;;;;;-1.21;100.00;98680.38;1713968;82;21117;-77
2022/11/17 03:38:29;;;;;;;11.45;9.33;;;;;;;-1.01;100.00;98674.28;1687749;84;21078;-77
2022/11/17 03:40:57;;;;;;;10.55;8.03;;;;;;;-0.93;100.00;98671.32;1688869;84;21091;-77
2022/11/17 03:43:23;;;;;;;9.68;7.83;;;;;;;-0.76;100.00;98668.33;1685155;83;21082;-78
2022/11/17 03:45:52;;;;;;;10.82;7.83;;;;;;;-0.69;100.00;98655.70;1683625;84;21118;-78
2022/11/17 03:48:32;;;;;;;9.65;8.10;;;;;;;-0.59;100.00;98660.50;1680338;84;21081;-77
2022/11/17 03:51:10;;;;;;;11.35;8.33;;;;;;;-0.49;100.00;98664.78;1654314;85;21655;-78
2022/11/17 03:53:38;;;;;;;10.13;7.90;;;;;;;-0.47;100.00;98661.38;1661785;86;21075;-77
2022/11/17 03:56:22;;;;;;;10.72;7.53;;;;;;;-0.41;100.00;98659.64;1682483;84;21065;-78
2022/11/17 03:59:04;;;;;;;10.40;8.48;;;;;;;-0.42;100.00;98661.48;1671458;84;21053;-78
2022/11/17 04:01:30;;;;;;;11.40;9.10;;;;;;;-0.40;100.00;98657.27;1669136;84;21038;-78
2022/11/17 04:03:56;;;;;;;10.13;7.95;;;;;;;-0.41;100.00;98660.97;1666367;84;21042;-78
2022/11/17 04:06:23;;;;;;;9.93;8.00;;;;;;;-0.35;100.00;98656.05;1665140;84;21017;-78
2022/11/17 04:08:50;;;;;;;10.45;8.58;;;;;;;-0.33;100.00;98649.97;1676761;85;21090;-78
2022/11/17 04:16:46;;;;;;;9.70;8.38;;;;;;;-0.36;100.00;98651.77;1670359;84;21500;-78
2022/11/17 04:19:13;;;;;;;10.75;8.30;;;;;;;-0.34;100.00;98657.17;1674750;84;21078;-78
2022/11/17 04:21:41;;;;;;;9.93;8.28;;;;;;;-0.33;100.00;98656.13;1669385;84;21630;-78
2022/11/17 04:24:08;;;;;;;10.10;7.75;;;;;;;-0.31;100.00;98643.86;1666624;84;21170;-78
2022/11/17 04:29:19;;;;;;;11.33;8.83;;;;;;;-0.35;100.00;98649.36;1669636;84;21515;-79
2022/11/17 04:31:45;;;;;;;9.98;7.65;;;;;;;-0.39;100.00;98652.22;1673063;84;21103;-78
2022/11/17 04:34:12;;;;;;;12.80;9.30;;;;;;;-0.38;100.00;98651.98;1671700;84;21064;-78
2022/11/17 04:36:43;;;;;;;10.55;8.18;;;;;;;-0.38;100.00;98644.47;1683821;84;21094;-78
2022/11/17 04:39:13;;;;;;;11.25;9.25;;;;;;;-0.37;100.00;98658.14;1670477;85;21526;-78
2022/11/17 04:42:02;;;;;;;10.32;8.08;;;;;;;-0.37;100.00;98652.80;1683210;84;21045;-78
2022/11/17 04:44:27;;;;;;;10.85;8.88;;;;;;;-0.34;100.00;98655.01;1693548;84;21101;-78
2022/11/17 04:46:54;;;;;;;10.93;8.35;;;;;;;-0.37;100.00;98658.97;1671738;84;21516;-78
2022/11/17 04:49:21;;;;;;;11.70;9.40;;;;;;;-0.37;100.00;98651.45;1672947;84;21149;-78
2022/11/17 04:51:48;;;;;;;12.45;9.20;;;;;;;-0.38;100.00;98656.50;1675869;84;21063;-78
2022/11/17 04:54:16;;;;;;;12.53;9.15;;;;;;;-0.41;100.00;98660.45;1673742;84;21145;-78
2022/11/17 04:56:46;;;;;;;12.05;9.10;;;;;;;-0.37;100.00;98661.64;1684879;84;21513;-78
2022/11/17 04:59:13;;;;;;;12.13;9.23;;;;;;;-0.40;100.00;98662.09;1680448;85;21886;-78
2022/11/17 05:01:40;;;;;;;11.95;9.60;;;;;;;-0.38;100.00;98673.89;1675870;84;20982;-77
2022/11/17 05:04:09;;;;;;;13.25;9.55;;;;;;;-0.42;100.00;98670.03;1664482;84;21070;-78
2022/11/17 05:06:39;;;;;;;12.93;10.05;;;;;;;-0.39;100.00;98669.60;1671776;84;21050;-78
2022/11/17 05:09:14;;;;;;;12.23;9.23;;;;;;;-0.41;100.00;98671.67;1607491;87;21076;-77
2022/11/17 05:14:27;;;;;;;13.53;10.43;;;;;;;-0.42;100.00;98677.53;1638017;86;21138;-78
2022/11/17 05:17:08;;;;;;;14.60;10.40;;;;;;;-0.43;100.00;98681.79;1640350;86;21025;-78
2022/11/17 05:19:43;;;;;;;14.13;10.10;;;;;;;-0.45;100.00;98694.55;1678981;84;21446;-78
2022/11/17 05:25:01;;;;;;;15.68;10.70;;;;;;;-0.54;100.00;98704.76;1676461;84;21787;-78
2022/11/17 05:27:27;;;;;;;14.90;11.83;;;;;;;-0.56;100.00;98700.14;1673560;84;21463;-78
2022/11/17 05:29:54;;;;;;;13.88;10.32;;;;;;;-0.56;100.00;98700.14;1674025;85;21063;-78
2022/11/17 05:32:20;;;;;;;15.18;11.20;;;;;;;-0.54;100.00;98711.44;1654448;87;21043;-78
2022/11/17 05:34:47;;;;;;;;;;;;;;;-0.60;100.00;98714.99;1655656;86;21127;-78
2022/11/17 05:37:13;;;;;;;15.08;10.93;;;;;;;-0.68;100.00;98723.34;1649598;86;20518;-78
2022/11/17 05:39:40;;;;;;;15.20;11.68;;;;;;;-0.70;100.00;98733.41;1646401;85;21130;-78
2022/11/17 05:42:06;;;;;;;15.78;11.00;;;;;;;-0.66;100.00;98739.95;1640981;86;21044;-78
2022/11/17 05:44:33;;;;;;;14.40;10.63;;;;;;;-0.64;100.00;98733.88;1648065;86;21155;-78
2022/11/17 05:46:59;;;;;;;14.33;10.80;;;;;;;-0.60;100.00;98727.84;1650617;85;20995;-78
2022/11/17 05:49:26;;;;;;;15.18;11.10;;;;;;;-0.60;100.00;98728.36;1710021;82;21129;-78
2022/11/17 05:51:52;;;;;;;17.65;11.97;;;;;;;-0.57;100.00;98724.71;1705835;84;21011;-78
2022/11/17 05:54:19;;;;;;;14.90;10.98;;;;;;;-0.57;100.00;98715.36;1704182;83;21110;-76
2022/11/17 05:56:49;;;;;;;16.55;12.15;;;;;;;-0.60;100.00;98702.45;1695572;83;21020;-76
2022/11/17 05:59:21;;;;;;;15.50;12.00;;;;;;;-0.60;100.00;98697.09;1701089;83;21071;-77
2022/11/17 06:01:56;;;;;;;15.30;11.48;;;;;;;-0.58;100.00;98694.22;1709412;84;21035;-78
2022/11/17 06:04:22;;;;;;;15.43;11.43;;;;;;;-0.56;100.00;98685.44;1702726;82;21178;-75
2022/11/17 06:06:49;;;;;;;15.98;11.30;;;;;;;-0.62;100.00;98681.00;1683566;82;20990;-76
2022/11/17 06:09:15;;;;;;;16.82;12.40;;;;;;;-0.59;100.00;98679.20;1660763;84;21170;-76
2022/11/17 06:11:42;;;;;;;14.65;10.70;;;;;;;-0.66;100.00;98679.81;1705406;82;21114;-76
2022/11/17 06:14:09;;;;;;;16.67;12.50;;;;;;;-0.60;100.00;98682.91;1694625;82;21956;-76
2022/11/17 06:16:39;;;;;;;16.55;11.35;;;;;;;-0.64;100.00;98679.88;1698706;82;21049;-76
2022/11/17 06:19:11;;;;;;;16.82;12.75;;;;;;;-0.61;100.00;98675.95;1692385;82;21008;-75
2022/11/17 06:21:37;;;;;;;16.45;12.03;;;;;;;-0.64;100.00;98682.55;1688783;83;21023;-75
2022/11/17 06:24:04;;;;;;;16.52;11.45;;;;;;;-0.67;100.00;98680.33;1707008;83;21039;-76
2022/11/17 06:26:32;;;;;;;18.05;11.88;;;;;;;-0.65;100.00;98695.64;1707499;82;21122;-74
2022/11/17 06:28:59;;;;;;;16.40;10.55;;;;;;;-0.67;100.00;98695.03;1706654;82;21022;-75
2022/11/17 06:31:25;;;;;;;16.27;12.65;;;;;;;-0.62;100.00;98687.69;1717146;83;21119;-75
2022/11/17 06:33:52;;;;;;;;;;;;;;;-0.62;100.00;98678.33;1713136;83;21082;-75
2022/11/17 06:36:18;;;;;;;17.02;12.05;;;;;;;-0.65;100.00;98680.12;1708089;83;20823;-75
2022/11/17 06:38:45;;;;;;;15.78;10.85;;;;;;;-0.72;100.00;98680.20;1714529;83;21086;-75
2022/11/17 06:41:11;;;;;;;16.17;10.95;;;;;;;-0.72;100.00;98676.20;1721629;82;21119;-74
2022/11/17 06:43:39;;;;;;;14.18;11.00;;;;;;;-0.67;100.00;98662.96;1721754;83;21056;-74
2022/11/17 06:46:05;;;;;;;16.10;11.05;;;;;;;-0.68;100.00;98665.88;1688034;83;21100;-74
2022/11/17 06:48:34;;;;;;;16.62;11.80;;;;;;;-0.63;100.00;98673.50;1668114;84;21038;-74
2022/11/17 06:51:03;;;;;;;18.12;11.55;;;;;;;-0.65;100.00;98678.27;1669820;85;21125;-74
2022/11/17 06:53:32;;;;;;;16.45;12.20;;;;;;;-0.68;100.00;98667.21;1644188;87;21068;-76
2022/11/17 06:56:10;;;;;;;16.10;11.15;;;;;;;-0.75;100.00;98674.50;1661656;86;22309;-76
2022/11/17 06:58:38;;;;;;;15.90;10.60;;;;;;;-0.71;100.00;98672.46;1663833;86;21090;-74
2022/11/17 07:01:12;;;;;;;14.98;11.38;;;;;;;-0.74;100.00;98666.23;1665112;84;21656;-74
2022/11/17 07:03:41;;;;;;;16.23;11.63;;;;;;;-0.68;100.00;98665.88;1669970;85;21020;-75
2022/11/17 07:06:09;;;;;;;15.20;11.53;;;;;;;-0.66;100.00;98668.61;1671757;85;21127;-75
2022/11/17 07:08:36;;;;;;;17.45;12.65;;;;;;;-0.58;100.00;98656.27;1671938;85;21619;-74
2022/11/17 07:11:10;;;;;;;14.55;11.25;;;;;;;-0.62;100.00;98661.77;1670159;84;21067;-75
2022/11/17 07:13:37;;;;;;;17.05;12.00;;;;;;;-0.57;100.00;98654.42;1669937;86;21925;-74
2022/11/17 07:16:10;;;;;;;15.70;12.13;;;;;;;-0.61;100.00;98667.42;1665394;86;21129;-75
2022/11/17 07:18:40;;;;;;;15.63;11.48;;;;;;;-0.61;100.00;98670.09;1668882;85;21105;-75
2022/11/17 07:21:09;;;;;;;15.32;10.93;;;;;;;-0.64;100.00;98668.39;1663183;85;21125;-74
2022/11/17 07:23:37;;;;;;;15.58;11.50;;;;;;;-0.61;100.00;98674.11;1655122;85;21127;-74
2022/11/17 07:26:05;;;;;;;14.87;11.00;;;;;;;-0.65;100.00;98676.93;1670361;84;21086;-74
2022/11/17 07:28:33;;;;;;;15.03;11.40;;;;;;;-0.66;100.00;98677.96;1674665;85;21102;-74
2022/11/17 07:31:01;;;;;;;15.28;10.40;;;;;;;-0.62;100.00;98675.66;1669163;84;21181;-74
2022/11/17 07:33:28;;;;;;;17.67;11.35;;;;;;;-0.57;100.00;98665.12;1667964;85;21458;-73
2022/11/17 07:35:55;;;;;;;13.70;10.05;;;;;;;-0.59;100.00;98661.84;1661797;84;21072;-72
2022/11/17 07:38:22;;;;;;;16.85;11.57;;;;;;;-0.55;100.00;98670.52;1660119;85;21575;-72
2022/11/17 07:40:48;;;;;;;14.03;10.88;;;;;;;-0.57;100.00;98675.27;1669093;85;22260;-73
2022/11/17 07:43:15;;;;;;;15.38;10.70;;;;;;;-0.53;100.00;98671.61;1669493;85;21038;-73
2022/11/17 07:45:42;;;;;;;13.68;11.30;;;;;;;-0.55;100.00;98685.22;1662798;84;21153;-72
2022/11/17 07:48:09;;;;;;;15.08;11.38;;;;;;;-0.54;100.00;98680.19;1666468;85;21605;-73
2022/11/17 07:53:52;;;;;;;15.83;10.25;;;;;;;-0.58;100.00;98680.33;1809640;78;23636;-73
2022/11/17 07:56:18;;;;;;;14.20;10.32;;;;;;;-0.68;100.00;98690.75;1722528;80;21667;-73
2022/11/17 07:58:45;;;;;;;14.35;11.22;;;;;;;-0.62;100.00;98697.86;1723547;82;21411;-74
2022/11/17 08:01:17;;;;;;;15.72;11.28;;;;;;;-0.64;100.00;98695.91;1723198;82;21090;-74
2022/11/17 08:03:43;;;;;;;14.58;11.30;;;;;;;-0.66;100.00;98693.18;1726223;81;21030;-75
2022/11/17 08:06:10;;;;;;;17.60;12.25;;;;;;;-0.63;100.00;98691.39;1711271;81;21154;-74
2022/11/17 08:08:37;;;;;;;;;;;;;;;-0.66;100.00;98689.99;1727108;81;21038;-73
2022/11/17 08:11:05;;;;;;;15.20;10.85;;;;;;;-0.57;100.00;98682.48;1728284;81;20490;-74
2022/11/17 08:13:32;;;;;;;13.40;10.08;;;;;;;-0.63;100.00;98677.51;1729490;81;21054;-74
2022/11/17 08:16:00;;;;;;;14.18;10.85;;;;;;;-0.63;100.00;98674.02;1727378;81;21090;-74
2022/11/17 08:18:27;;;;;;;15.15;11.03;;;;;;;-0.70;100.00;98662.08;1730663;81;21095;-74
2022/11/17 08:21:12;;;;;;;17.05;12.18;;;;;;;-0.73;100.00;98660.37;1722759;81;21118;-74
2022/11/17 08:23:42;;;;;;;15.58;11.20;;;;;;;-0.72;100.00;98665.51;1721898;82;21046;-74
2022/11/17 08:26:09;;;;;;;14.83;10.43;;;;;;;-0.74;100.00;98668.91;1724546;82;21129;-74
2022/11/17 08:28:37;;;;;;;16.73;12.55;;;;;;;-0.68;100.00;98665.36;1726590;81;21065;-75
2022/11/17 08:31:06;;;;;;;14.53;10.55;;;;;;;-0.70;100.00;98674.10;1716576;81;21086;-74
2022/11/17 08:33:33;;;;;;;15.13;11.73;;;;;;;-0.64;100.00;98676.41;1729387;82;21595;-76
2022/11/17 08:38:40;;;;;;;16.32;11.45;;;;;;;-0.65;100.00;98658.22;1798287;78;22974;-76
2022/11/17 08:41:08;;;;;;;15.98;11.53;;;;;;;-0.68;100.00;98661.35;1734550;81;21347;-75
2022/11/17 08:43:36;;;;;;;14.85;11.30;;;;;;;-0.65;100.00;98658.73;1733914;81;21046;-76
2022/11/17 08:46:03;;;;;;;14.83;10.98;;;;;;;-0.67;100.00;98657.61;1706077;83;21136;-74
2022/11/17 08:48:30;;;;;;;;;;;;;;;-0.66;100.00;98649.08;1708369;83;21096;-75
2022/11/17 08:50:57;;;;;;;15.75;11.10;;;;;;;-0.65;100.00;98643.52;1678916;85;20143;-72
2022/11/17 08:53:23;;;;;;;15.25;10.85;;;;;;;-0.68;100.00;98657.86;1670542;84;21516;-71
2022/11/17 08:55:50;;;;;;;14.45;11.83;;;;;;;-0.69;100.00;98658.38;1693321;82;21145;-73
2022/11/17 08:58:17;;;;;;;16.97;12.23;;;;;;;-0.72;100.00;98657.49;1693766;84;21085;-72
2022/11/17 09:00:46;;;;;;;14.35;10.90;;;;;;;-0.73;100.00;98655.85;1688816;84;21608;-73
2022/11/17 09:03:13;;;;;;;15.08;11.78;;;;;;;-0.68;100.00;98646.65;1692537;84;21551;-72
2022/11/17 09:05:42;;;;;;;17.10;11.73;;;;;;;-0.70;100.00;98654.06;1701177;84;21113;-70
2022/11/17 09:08:10;;;;;;;16.48;11.85;;;;;;;-0.68;100.00;98637.81;1687136;84;21097;-73
2022/11/17 09:10:36;;;;;;;;;;;;;;;-0.72;100.00;98640.64;1691629;84;22256;-71
2022/11/17 09:13:04;;;;;;;14.43;10.93;;;;;;;-0.67;100.00;98630.06;1691790;84;20164;-72
2022/11/17 09:15:32;;;;;;;15.18;11.65;;;;;;;-0.74;100.00;98623.48;1690740;83;21459;-72
2022/11/17 09:17:58;;;;;;;14.85;11.10;;;;;;;-0.73;100.00;98632.31;1697632;84;21036;-72
2022/11/17 09:20:25;;;;;;;15.43;11.43;;;;;;;-0.75;100.00;98627.22;1680687;84;21078;-72
2022/11/17 09:22:52;;;;;;;14.28;11.08;;;;;;;-0.71;100.00;98623.57;1703623;84;21157;-72
2022/11/17 09:25:18;;;;;;;15.20;10.80;;;;;;;-0.74;100.00;98631.50;1697560;84;21138;-72
2022/11/17 09:27:48;;;;;;;14.07;10.30;;;;;;;-0.75;100.00;98633.08;1691186;83;21090;-72
2022/11/17 09:30:20;;;;;;;16.12;12.03;;;;;;;-0.79;100.00;98630.04;1677268;83;21615;-72
2022/11/17 09:32:46;;;;;;;15.58;11.12;;;;;;;-0.84;100.00;98619.71;1706102;83;21572;-72
2022/11/17 09:35:13;;;;;;;14.68;10.48;;;;;;;-0.81;100.00;98627.27;1705390;83;21613;-73
2022/11/17 09:37:39;;;;;;;14.07;10.35;;;;;;;-0.80;100.00;98619.05;1706860;83;21072;-71
2022/11/17 09:40:12;;;;;;;14.63;12.00;;;;;;;-0.80;100.00;98611.03;1691146;84;21070;-71
2022/11/17 09:42:39;;;;;;;14.85;11.00;;;;;;;-0.82;100.00;98614.46;1710791;82;21588;-70
2022/11/17 09:45:18;;;;;;;13.68;10.30;;;;;;;-0.82;100.00;98613.13;1678510;84;21062;-71
2022/11/17 09:47:55;;;;;;;15.40;10.80;;;;;;;-0.77;100.00;98616.44;1674262;84;21107;-73
2022/11/17 09:50:37;;;;;;;15.15;10.98;;;;;;;-0.75;100.00;98609.02;1661889;84;21759;-73
2022/11/17 09:53:14;;;;;;;14.05;10.63;;;;;;;-0.79;100.00;98610.00;1683723;84;21055;-73
2022/11/17 14:58:15;;;;;;;25.55;17.75;;;;;;;-2.74;100.00;98513.11;1776584;78;22275;-65
2022/11/17 15:00:42;;;;;;;18.05;11.38;;;;;;;-2.64;100.00;98520.92;1739894;82;21972;-65
2022/11/17 15:03:09;;;;;;;15.28;10.50;;;;;;;-2.37;100.00;98524.17;1744080;80;21093;-66
2022/11/17 15:05:38;;;;;;;16.80;10.25;;;;;;;-2.16;100.00;98526.44;1741367;81;21078;-65
2022/11/17 15:08:06;;;;;;;13.58;9.70;;;;;;;-2.02;100.00;98531.95;1708701;82;21093;-66
2022/11/17 15:10:33;;;;;;;15.08;10.60;;;;;;;-1.84;100.00;98528.48;1741842;82;20975;-65
2022/11/17 15:13:01;;;;;;;17.17;10.50;;;;;;;-1.76;100.00;98526.86;1745240;80;21623;-65
2022/11/17 15:15:28;;;;;;;16.10;10.30;;;;;;;-1.64;100.00;98526.95;1737215;81;21038;-65
2022/11/17 15:17:54;;;;;;;18.07;10.93;;;;;;;-1.57;100.00;98526.34;1736755;81;21145;-65
2022/11/17 15:20:21;;;;;;;17.25;10.53;;;;;;;-1.51;100.00;98530.27;1739101;81;20995;-65
2022/11/17 15:22:49;;;;;;;17.42;10.23;;;;;;;-1.52;100.00;98527.30;1740215;80;22303;-66
2022/11/17 15:25:15;;;;;;;15.45;11.08;;;;;;;-1.45;100.00;98525.09;1739075;82;21003;-65
2022/11/17 15:27:42;;;;;;;;;;;;;;;-1.46;100.00;98520.78;1742003;80;21117;-65
2022/11/17 15:30:09;;;;;;;16.12;10.00;;;;;;;-1.44;100.00;98527.52;1737907;81;20150;-66
2022/11/17 15:32:36;;;;;;;15.98;9.98;;;;;;;-1.46;100.00;98530.95;1737587;81;21121;-66
2022/11/17 15:35:02;;;;;;;14.55;9.48;;;;;;;-1.45;100.00;98524.55;1743932;81;20987;-66
2022/11/17 15:37:29;;;;;;;14.95;10.80;;;;;;;-1.42;100.00;98518.78;1740610;81;21086;-66
2022/11/17 15:39:55;;;;;;;12.88;8.95;;;;;;;-1.38;100.00;98525.83;1738783;81;21043;-66
2022/11/17 15:42:22;;;;;;;14.38;9.90;;;;;;;-1.36;100.00;98520.55;1738450;82;21011;-66
2022/11/17 15:44:48;;;;;;;14.68;10.78;;;;;;;-1.35;100.00;98520.85;1740168;82;20940;-66
2022/11/17 15:47:15;;;;;;;16.37;9.83;;;;;;;-1.37;100.00;98516.23;1729932;81;21121;-66
2022/11/17 15:49:41;;;;;;;14.98;10.45;;;;;;;-1.38;100.00;98519.94;1743057;81;21003;-65
2022/11/17 15:52:07;;;;;;;14.10;9.80;;;;;;;-1.38;100.00;98519.94;1740566;82;21070;-67
2022/11/17 15:54:35;;;;;;;14.95;10.88;;;;;;;-1.37;100.00;98521.58;1742956;81;21022;-65
2022/11/17 15:57:01;;;;;;;14.68;10.40;;;;;;;-1.34;100.00;98525.64;1738410;80;21079;-66
2022/11/17 15:59:29;;;;;;;13.40;9.93;;;;;;;-1.35;100.00;98522.70;1764825;81;20999;-67
2022/11/17 16:01:56;;;;;;;;;;;;;;;-1.34;100.00;98525.64;1749479;81;21947;-66
2022/11/17 16:04:22;;;;;;;15.48;9.73;;;;;;;-1.33;100.00;98524.09;1736365;82;20547;-66
2022/11/17 16:06:49;;;;;;;14.35;9.53;;;;;;;-1.41;100.00;98524.91;1735141;81;21433;-66
2022/11/17 16:09:16;;;;;;;14.07;9.95;;;;;;;-1.39;100.00;98510.84;1733090;82;21083;-66
2022/11/17 16:11:43;;;;;;;;;;;;;;;-1.36;100.00;98522.40;1711611;82;21114;-66
2022/11/17 16:14:09;;;;;;;14.68;9.50;;;;;;;-1.38;100.00;98524.49;1711256;82;20875;-64
2022/11/17 16:16:38;;;;;;;14.10;9.73;;;;;;;-1.43;100.00;98519.00;1718584;82;21653;-64
2022/11/17 16:19:04;;;;;;;14.93;9.33;;;;;;;-1.39;100.00;98522.33;1730649;82;21006;-65
2022/11/17 16:21:32;;;;;;;14.87;9.88;;;;;;;-1.38;100.00;98532.50;1732593;82;22023;-65
2022/11/17 16:23:59;;;;;;;13.08;9.83;;;;;;;-1.39;100.00;98519.66;1725337;82;21459;-63
2022/11/17 16:26:26;;;;;;;13.90;10.15;;;;;;;-1.40;100.00;98514.02;1725323;81;21064;-64
2022/11/17 16:28:58;;;;;;;15.15;10.32;;;;;;;-1.40;100.00;98515.36;1711294;82;20963;-64
2022/11/17 16:31:27;;;;;;;14.90;9.83;;;;;;;-1.37;100.00;98508.23;1719254;82;20992;-64
2022/11/17 16:34:03;;;;;;;14.10;9.88;;;;;;;-1.39;100.00;98504.16;1728526;82;21508;-64
2022/11/17 16:36:33;;;;;;;14.47;9.60;;;;;;;-1.38;100.00;98501.80;1736552;81;21131;-65
2022/11/17 16:39:00;;;;;;;13.78;9.88;;;;;;;-1.37;100.00;98507.41;1735540;82;20948;-65
2022/11/17 16:41:32;;;;;;;13.60;9.28;;;;;;;-1.40;100.00;98502.53;1713775;82;21043;-65
2022/11/17 16:43:59;;;;;;;14.85;9.63;;;;;;;-1.39;100.00;98503.65;1725242;82;21003;-65
2022/11/17 16:46:28;;;;;;;12.90;9.65;;;;;;;-1.38;100.00;98499.13;1717596;82;21133;-65
2022/11/17 16:48:55;;;;;;;14.45;9.35;;;;;;;-1.39;100.00;98492.16;1735418;82;21012;-64
2022/11/17 16:51:21;;;;;;;15.03;10.18;;;;;;;-1.40;100.00;98483.33;1735528;81;21056;-64
2022/11/17 16:53:55;;;;;;;16.35;10.32;;;;;;;-1.42;100.00;98491.27;1732207;82;21043;-65
2022/11/17 16:56:21;;;;;;;15.35;9.35;;;;;;;-1.43;100.00;98483.78;1732342;81;21067;-65
2022/11/17 16:58:48;;;;;;;13.22;9.30;;;;;;;-1.41;100.00;98487.54;1738799;82;21492;-64
2022/11/17 17:01:19;;;;;;;17.87;10.15;;;;;;;-1.40;100.00;98490.00;1737085;82;21019;-64
2022/11/17 17:03:45;;;;;;;16.23;9.58;;;;;;;-1.41;100.00;98488.88;1708444;84;21132;-64
2022/11/17 17:06:16;;;;;;;;;;;;;;;-1.43;100.00;98484.30;1722721;82;21079;-64
2022/11/17 17:08:43;;;;;;;11.70;8.78;;;;;;;-1.43;100.00;98482.45;1720793;82;20165;-64
2022/11/17 17:11:12;;;;;;;15.35;9.60;;;;;;;-1.49;100.00;98490.54;1718230;82;20988;-64
2022/11/17 17:13:41;;;;;;;14.50;9.50;;;;;;;-1.51;100.00;98496.09;1726047;82;21680;-67
2022/11/17 17:16:12;;;;;;;13.40;9.48;;;;;;;-1.52;100.00;98496.61;1730444;81;21095;-68
2022/11/17 17:18:39;;;;;;;15.48;10.00;;;;;;;-1.46;100.00;98493.58;1742036;82;21044;-67
2022/11/17 17:21:06;;;;;;;13.28;9.30;;;;;;;-1.50;100.00;98484.38;1741800;81;21516;-66
2022/11/17 17:23:34;;;;;;;17.65;9.20;;;;;;;-1.46;100.00;98490.09;1730657;82;21042;-65
2022/11/17 17:26:12;;;;;;;12.73;8.93;;;;;;;-1.46;100.00;98486.91;1735003;82;20989;-65
2022/11/17 17:28:39;;;;;;;15.72;9.05;;;;;;;-1.41;100.00;98483.53;1740508;82;20963;-68
2022/11/17 17:31:06;;;;;;;11.83;8.90;;;;;;;-1.43;100.00;98487.78;1740485;82;21405;-67
2022/11/17 17:33:35;;;;;;;12.65;8.78;;;;;;;-1.46;100.00;98486.08;1733582;82;21015;-66
2022/11/17 17:36:04;;;;;;;13.85;8.70;;;;;;;-1.52;100.00;98481.11;1742773;82;20991;-66
2022/11/17 17:38:31;;;;;;;13.10;9.10;;;;;;;-1.52;100.00;98488.59;1741884;82;21046;-66
2022/11/17 17:41:15;;;;;;;14.13;8.95;;;;;;;-1.52;100.00;98480.59;1740955;82;21011;-66
2022/11/17 17:43:42;;;;;;;15.83;8.90;;;;;;;-1.50;100.00;98485.72;1738056;82;20972;-66
2022/11/17 17:46:11;;;;;;;15.75;8.35;;;;;;;-1.44;100.00;98490.66;1736240;80;21019;-66
2022/11/17 17:48:39;;;;;;;12.98;8.90;;;;;;;-1.44;100.00;98487.48;1740041;82;21011;-66
2022/11/17 17:51:10;;;;;;;12.90;8.48;;;;;;;-1.43;100.00;98485.63;1737506;82;21392;-66
2022/11/17 17:56:12;;;;;;;13.20;8.38;;;;;;;-1.42;100.00;98458.72;1789498;78;23458;-67
2022/11/17 17:58:39;;;;;;;14.00;8.50;;;;;;;-1.45;100.00;98473.83;1749768;80;20995;-67
2022/11/17 18:01:13;;;;;;;14.15;8.40;;;;;;;-1.44;100.00;98472.80;1740912;80;21082;-67
2022/11/17 18:03:42;;;;;;;13.25;8.65;;;;;;;-1.44;100.00;98470.64;1746924;80;21636;-69
2022/11/17 18:06:09;;;;;;;13.03;8.80;;;;;;;-1.45;100.00;98463.70;1756305;80;21033;-68
2022/11/17 18:08:35;;;;;;;12.78;8.65;;;;;;;-1.48;100.00;98464.94;1749057;80;21675;-68
2022/11/17 18:11:05;;;;;;;13.75;9.10;;;;;;;-1.51;100.00;98471.55;1749844;80;21129;-67
2022/11/17 18:13:35;;;;;;;14.00;8.58;;;;;;;-1.52;100.00;98467.25;1755949;80;21002;-68
2022/11/17 22:43:27;;;;;;;14.80;10.78;;;;;;;-3.74;100.00;98443.38;1766016;79;23056;-70
2022/11/17 22:45:53;;;;;;;9.88;7.50;;;;;;;-3.64;100.00;98455.20;1705057;83;21019;-71
2022/11/17 22:48:20;;;;;;;10.10;6.37;;;;;;;-3.39;100.00;98450.45;1704613;81;21170;-70
2022/11/17 22:50:46;;;;;;;9.95;6.45;;;;;;;-3.19;100.00;98452.51;1686478;83;21089;-71
2022/11/17 22:53:13;;;;;;;12.18;5.60;;;;;;;-3.04;100.00;98456.98;1722253;82;21081;-72
2022/11/17 22:55:39;;;;;;;8.63;6.00;;;;;;;-2.92;100.00;98459.27;1726566;82;21075;-73
2022/11/17 22:58:06;;;;;;;9.83;5.87;;;;;;;-2.80;100.00;98452.19;1727071;81;21090;-70
2022/11/17 23:00:33;;;;;;;11.50;6.80;;;;;;;-2.71;100.00;98458.07;1689212;84;21322;-71
2022/11/17 23:02:59;;;;;;;9.10;6.08;;;;;;;-2.63;100.00;98455.14;1691553;84;21126;-71
2022/11/17 23:05:26;;;;;;;11.18;6.28;;;;;;;-2.54;100.00;98463.14;1647948;85;21050;-71
2022/11/17 23:07:52;;;;;;;9.28;5.75;;;;;;;-2.47;100.00;98464.41;1681821;84;21586;-70
2022/11/17 23:10:20;;;;;;;8.33;5.78;;;;;;;-2.44;100.00;98457.34;1672957;84;21053;-71
2022/11/17 23:12:47;;;;;;;9.33;5.95;;;;;;;-2.42;100.00;98461.91;1673950;85;21554;-71
2022/11/17 23:15:14;;;;;;;8.88;6.03;;;;;;;-2.40;100.00;98455.32;1676484;84;21094;-71
2022/11/17 23:17:42;;;;;;;10.40;6.35;;;;;;;-2.38;100.00;98466.59;1675203;85;21113;-70
2022/11/17 23:20:09;;;;;;;9.23;5.92;;;;;;;-2.34;100.00;98456.31;1675017;84;21011;-70
2022/11/17 23:22:36;;;;;;;7.70;5.42;;;;;;;-2.29;100.00;98463.11;1682616;84;21102;-71
2022/11/17 23:25:03;;;;;;;8.28;5.80;;;;;;;-2.28;100.00;98457.58;1682866;84;21462;-71
2022/11/17 23:27:30;;;;;;;9.10;5.75;;;;;;;-2.24;100.00;98463.28;1671248;84;21169;-70
2022/11/17 23:29:57;;;;;;;8.95;6.40;;;;;;;-2.26;100.00;98458.67;1663839;84;21075;-71
2022/11/17 23:32:23;;;;;;;11.30;5.78;;;;;;;-2.28;100.00;98464.75;1672360;85;21074;-71
2022/11/17 23:34:50;;;;;;;9.20;5.75;;;;;;;-2.28;100.00;98465.57;1682066;84;21042;-70
2022/11/17 23:37:17;;;;;;;7.03;4.83;;;;;;;-2.31;100.00;98466.53;1682201;83;21126;-70
2022/11/17 23:39:43;;;;;;;7.95;5.20;;;;;;;-2.35;100.00;98473.33;1693914;83;20980;-70
2022/11/17 23:42:09;;;;;;;8.68;5.58;;;;;;;-2.37;100.00;98472.75;1671636;84;21041;-70
2022/11/17 23:44:36;;;;;;;;;;;;;;;-2.37;100.00;98477.53;1660771;84;21106;-71
2022/11/17 23:47:02;;;;;;;7.97;5.60;;;;;;;-2.36;100.00;98485.02;1659562;84;20145;-70
2022/11/17 23:49:31;;;;;;;;;;;;;;;-2.41;100.00;98485.70;1727537;82;21638;-70
2022/11/17 23:51:58;;;;;;;7.65;5.90;;;;;;;-2.37;100.00;98489.52;1722692;82;20379;-70
2022/11/17 23:54:24;;;;;;;7.65;5.67;;;;;;;-2.41;100.00;98487.03;1720055;81;21098;-70
2022/11/17 23:56:51;;;;;;;8.60;5.90;;;;;;;-2.39;100.00;98488.12;1720113;82;22102;-70
2022/11/17 23:59:20;;;;;;;7.40;5.22;;;;;;;-2.36;100.00;98491.67;1720101;82;21145;-70
